White Mountain, AK

6:04 AM AKDT on September 20, 2014 (GMT -0800)
White Mountain | Change Station
CLOSE
Current Station
Airport
Location: White Mountain,
Elevation: 266 ft
Nearby Weather Stations

Elev 266 ft 64.69 °N, 163.41 °W | Updated 6 minutes ago

Clear
Clear
36 °F
Feels Like 28 °F
N
10
Wind Variable Wind from NNW

Today
High -- | Low -- °F
--% Chance of Precip.
Yesterday
High -- | Low -- °F
Precip. -- in
8:30 AM 9:00 PM
Waning Crescent, 12% visible
Pressure 29.71 in
Visibility 10.0 miles
Clouds Clear
Windchill 28 °F
Dew Point 35 °F
Humidity 97%
Rainfall 0.00 in
Snow Depth 0 in , 0 in , 0 in
UV 0 out of 12
Pollen Not available.
Air Quality Not available.
Flu Activity Not available.
METAR PAWM 201358Z AUTO 34009KT 10SM CLR 02/02 A2969 RMK AO2 SLP060 T00220017 FZRANO

More Conditions Fewer Conditions

Pressure 29.71 in
Visibility 10.0 miles
Clouds Clear
Windchill 28 °F
Dew Point 35 °F
Humidity 97%
Rainfall 0.00 in
Snow Depth 0 in , 0 in , 0 in
UV 0 out of 12
Pollen Not available.
Air Quality Not available.
Flu Activity Not available.
METAR PAWM 201358Z AUTO 34009KT 10SM CLR 02/02 A2969 RMK AO2 SLP060 T00220017 FZRANO

More Conditions Fewer Conditions

10-Day Weather Forecast

Almanac

Astronomy

Sep. 20, 2014 Rise Set
Actual Time 8:30 AM AKDT 9:00 PM AKDT
Civil Twilight 7:41 AM AKDT 9:49 PM AKDT
Nautical Twilight 6:39 AM AKDT 10:50 PM AKDT
Astronomical Twilight 5:27 AM AKDT 12:01 AM AKDT
Moon 4:24 AM AKDT 7:54 PM AKDT
Length of Visible Light 14h 08m
Length of Day
12h 29m
Tomorrow will be 6m 38s shorter.
Waning Crescent, 12% of the Moon is Illuminated
Today
Waning Crescent
Sep 24
New
Oct 1
First Quarter
Oct 8
Full
Oct 15
Last Quarter

Today's Extremes

State Highs State Lows

Community

WunderPhotos

Upload Photos

1,754,865 photos uploaded!

Nearby

Snow Depth

Station Depth Elevation
Long Lake 0 in 820 ft
Summit Creek 0 in 1400 ft
Little Chena Ridge 0 in 2000 ft
Grandview 0 in 1100 ft
Cooper Lake 12 in 1200 ft

Earthquake Activity

City Distance Mag. Time & Date
No recent earthquake activity has been reported nearby.
Minimum magnitude displayed is 2.5.

Coastal Water Temperatures

Place Temperature
No Stations Reporting

Nearby Weather Stations